Kybartai, Lithuania

11:09 AM EET on lapkričio 20, 2017 (GMT +0200)
Kaunas International | | Change Station

Elev 253 ft 54.88 °N, 23.83 °E | Updated 19 minutes ago

Debesuotumas
Debesuotumas
37 °F
Feels Like 33 °F
N
6
Vėjas nepastovus Vėjas from Pietūs

Šiandien
High -- | Low -- °F
--% Chance of Precip.
Yesterday
High -- | Low -- °F
Precip. -- in
Slėgis 29.62 in
Matomumas 5.6 mylios
Debesys Debesuota 700 ft
Debesuotumas 1700 ft
Šaltas vėjas 33 °F
Rasos taškas 34 °F
Drėgmė 87%
Krituliai 0.00 in
Sniego dangos storis Not available.
8:09 AM 4:18 PM
Priešpilnis mėnulis, 3% visible
METAR EYKA 200850Z 18005KT 9000 -RA BKN007 OVC017 03/01 Q1003 R08/2///95
Slėgis 29.62 in
Matomumas 5.6 mylios
Debesys Debesuota 700 ft
Debesuotumas 1700 ft
Šaltas vėjas 33 °F
Rasos taškas 34 °F
Drėgmė 87%
Krituliai 0.00 in
Sniego dangos storis Not available.
8:09 AM 4:18 PM
Priešpilnis mėnulis, 3% visible
METAR EYKA 200850Z 18005KT 9000 -RA BKN007 OVC017 03/01 Q1003 R08/2///95

Get Severe Weather Alerts

Thanks for signing up!

Be on the lookout for a verification email in your inbox.

You'll start receiving the daily forecast at 6 AM.

×

10-Day Weather Forecast

×

Almanac

Astronomija

Nov. 20, 2017 Rise Set
Vietos laikas
Dienos šviesa
Jūrinė diena
Astronominė diena
Mėnulis
Matomos šviesos trukmė
Dienos ilgis
Tomorrow will be .
, % of the Moon is Illuminated

Šiandienos maksimumai

Country Highs Country Lows

Community

WunderPhotos

Category 6

Welcome to Category 6. This is the collective home for Weather Underground's featured writeups by Dr. Jeff Masters (right), Bob Henson (left), Chris Burt, and other regular contributors.

Nearby

Air Quality

  Air Quality AQ Index Pollutant
Not available.

Sniego danga

Station Depth Elevation

Earthquake Activity

Miestas Distance Mag. Time & Date
Minimum magnitude displayed is 2.5.

Coastal Water Temperatures

Vieta Temperatūra

Stations

Nearby Weather Stations

Station Location Temp Šaltas vėjas Rasos taškas Drėgmė Vėjas Precip. Elev Duomenys papildyti Type